createdAt,value
2023-02-21T00:05:29.140Z,4.80
2023-02-21T00:15:29.086Z,5.50
2023-02-21T00:25:29.061Z,5.90
2023-02-21T00:35:29.042Z,6.30
2023-02-21T00:45:29.041Z,5.90
2023-02-21T00:55:29.075Z,5.70
2023-02-21T01:05:29.163Z,6.50
2023-02-21T01:15:29.222Z,5.50
2023-02-21T01:25:29.065Z,6.20
2023-02-21T01:35:29.091Z,6.00
2023-02-21T01:45:29.115Z,7.20
2023-02-21T01:55:29.100Z,6.20
2023-02-21T02:05:29.097Z,4.80
2023-02-21T02:15:29.117Z,6.10
2023-02-21T02:25:29.089Z,6.80
2023-02-21T02:35:29.106Z,5.00
2023-02-21T02:45:29.124Z,5.10
2023-02-21T02:55:29.106Z,4.60
2023-02-21T03:05:29.119Z,4.90
2023-02-21T03:15:29.131Z,4.10
2023-02-21T03:25:29.102Z,4.80
2023-02-21T03:35:29.132Z,5.20
2023-02-21T03:45:29.255Z,4.00
2023-02-21T03:55:29.146Z,6.00
2023-02-21T04:05:29.132Z,5.30
2023-02-21T04:15:29.130Z,4.50
2023-02-21T04:25:29.155Z,6.60
2023-02-21T04:35:29.126Z,6.70
2023-02-21T04:45:29.166Z,7.30
2023-02-21T04:55:29.185Z,9.00
2023-02-21T05:05:29.188Z,6.90
2023-02-21T05:15:29.181Z,8.20
2023-02-21T05:25:29.144Z,8.10
2023-02-21T05:35:29.183Z,8.80
2023-02-21T05:45:29.152Z,11.10
2023-02-21T05:55:29.264Z,10.70
2023-02-21T06:05:29.279Z,8.30
2023-02-21T06:15:29.300Z,6.40
2023-02-21T06:25:29.175Z,5.50
2023-02-21T06:35:29.211Z,6.40
2023-02-21T06:45:29.194Z,6.20
2023-02-21T06:55:29.171Z,4.80
2023-02-21T07:05:29.216Z,5.90
2023-02-21T07:15:29.216Z,5.50
2023-02-21T07:25:29.335Z,5.90
2023-02-21T07:35:29.190Z,5.80
2023-02-21T07:45:29.246Z,5.90
2023-02-21T07:55:29.229Z,5.50
2023-02-21T08:05:29.207Z,7.50
2023-02-21T08:15:29.240Z,6.00
2023-02-21T08:25:29.237Z,6.40
2023-02-21T08:35:29.208Z,5.70
2023-02-21T08:45:29.499Z,4.30
2023-02-21T08:55:29.236Z,5.40
2023-02-21T09:05:29.244Z,7.40
2023-02-21T09:15:29.266Z,6.80
2023-02-21T09:25:29.239Z,5.30
2023-02-21T09:35:29.266Z,4.20
2023-02-21T09:45:29.296Z,4.40
2023-02-21T09:55:30.726Z,4.80
2023-02-21T10:05:29.273Z,4.00
2023-02-21T10:15:29.266Z,4.20
2023-02-21T10:25:29.327Z,4.30
2023-02-21T10:35:29.283Z,4.00
2023-02-21T10:45:29.275Z,4.90
2023-02-21T10:55:33.183Z,5.20
2023-02-21T11:05:29.312Z,5.40
2023-02-21T11:15:29.294Z,4.40
2023-02-21T11:25:29.316Z,4.20
2023-02-21T11:35:29.304Z,3.60
2023-02-21T11:55:29.438Z,3.80
2023-02-21T12:05:29.351Z,3.60
2023-02-21T12:15:29.305Z,3.40
2023-02-21T12:25:29.296Z,3.80
2023-02-21T12:35:29.486Z,3.40
2023-02-21T12:45:29.408Z,3.90
2023-02-21T12:55:29.311Z,4.10
2023-02-21T13:05:29.334Z,4.10
2023-02-21T13:15:29.315Z,4.50
2023-02-21T13:25:29.361Z,3.10
2023-02-21T13:35:29.355Z,3.90
2023-02-21T13:45:29.441Z,3.50
2023-02-21T13:55:29.366Z,4.40
2023-02-21T14:05:29.344Z,2.80
2023-02-21T14:15:29.357Z,4.10
2023-02-21T14:25:29.424Z,4.70
2023-02-21T14:35:29.381Z,4.50
2023-02-21T14:45:29.401Z,3.40
2023-02-21T14:55:29.368Z,4.60
2023-02-21T15:05:29.373Z,4.80
2023-02-21T15:15:29.366Z,4.30
2023-02-21T15:25:29.427Z,4.70
2023-02-21T15:35:29.403Z,4.20
2023-02-21T15:45:29.398Z,4.80
2023-02-21T15:55:29.379Z,6.80
2023-02-21T16:05:29.388Z,6.50
2023-02-21T16:15:29.649Z,6.10
2023-02-21T16:25:29.409Z,9.40
2023-02-21T16:35:29.403Z,11.60
2023-02-21T16:45:29.418Z,11.10
2023-02-21T16:55:29.440Z,10.70
2023-02-21T17:05:29.448Z,12.30
2023-02-21T17:15:29.448Z,10.40
2023-02-21T17:25:29.499Z,13.70
2023-02-21T17:35:29.424Z,10.00
2023-02-21T17:45:29.416Z,14.60
2023-02-21T17:55:29.494Z,14.50
2023-02-21T18:05:29.444Z,19.80
2023-02-21T18:15:29.428Z,23.50
2023-02-21T18:25:29.436Z,20.60
2023-02-21T18:35:29.474Z,20.80
2023-02-21T18:45:29.609Z,18.70
2023-02-21T18:55:29.468Z,22.70
2023-02-21T19:05:29.448Z,22.00
2023-02-21T19:15:29.503Z,19.90
2023-02-21T19:25:29.462Z,20.80
2023-02-21T19:35:29.488Z,21.90
2023-02-21T19:45:29.516Z,25.20
2023-02-21T19:55:29.504Z,20.60
2023-02-21T20:05:29.476Z,23.70
2023-02-21T20:15:29.474Z,20.00
2023-02-21T20:25:29.581Z,23.20
2023-02-21T20:35:29.579Z,22.50
2023-02-21T20:45:29.487Z,18.30
2023-02-21T20:55:29.518Z,17.70
2023-02-21T21:05:29.498Z,17.20
2023-02-21T21:15:29.538Z,23.10
2023-02-21T21:25:29.503Z,21.10
2023-02-21T21:35:29.530Z,23.80
2023-02-21T21:45:29.542Z,20.70
2023-02-21T21:55:29.568Z,19.20
2023-02-21T22:05:29.527Z,26.50
2023-02-21T22:15:29.515Z,18.20
2023-02-21T22:25:29.524Z,18.20
2023-02-21T22:35:29.559Z,23.50
2023-02-21T22:45:29.567Z,20.30
2023-02-21T22:55:29.570Z,20.80
2023-02-21T23:05:29.534Z,22.20
2023-02-21T23:15:29.536Z,22.50
2023-02-21T23:25:29.558Z,28.50
2023-02-21T23:35:29.643Z,23.80
2023-02-21T23:45:29.597Z,23.80
2023-02-21T23:55:29.551Z,25.10
